createdAt,value
2023-02-27T00:01:09.604Z,112.10
2023-02-27T00:04:02.051Z,112.55
2023-02-27T00:06:51.304Z,142.00
2023-02-27T00:09:42.882Z,120.25
2023-02-27T00:12:37.710Z,120.40
2023-02-27T00:15:31.014Z,126.72
2023-02-27T00:18:24.161Z,101.15
2023-02-27T00:21:13.398Z,72.25
2023-02-27T00:24:02.564Z,78.18
2023-02-27T00:26:53.963Z,90.90
2023-02-27T00:29:49.762Z,83.03
2023-02-27T00:32:39.462Z,100.28
2023-02-27T00:36:02.039Z,68.70
2023-02-27T00:38:51.443Z,67.10
2023-02-27T00:41:40.658Z,70.10
2023-02-27T00:44:30.283Z,56.58
2023-02-27T00:47:19.664Z,63.13
2023-02-27T00:50:10.800Z,54.95
2023-02-27T00:53:01.582Z,47.22
2023-02-27T00:55:51.012Z,49.65
2023-02-27T00:58:40.210Z,55.53
2023-02-27T01:01:31.192Z,46.22
2023-02-27T01:04:20.729Z,50.17
2023-02-27T01:07:10.589Z,64.45
2023-02-27T01:10:11.872Z,72.88
2023-02-27T01:13:01.582Z,65.47
2023-02-27T01:15:51.317Z,60.15
2023-02-27T01:18:40.782Z,67.15
2023-02-27T01:21:29.936Z,81.82
2023-02-27T01:24:20.000Z,77.07
2023-02-27T01:27:12.109Z,71.20
2023-02-27T01:30:01.422Z,68.65
2023-02-27T01:32:50.576Z,59.05
2023-02-27T01:35:40.677Z,61.30
2023-02-27T01:38:29.847Z,59.53
2023-02-27T01:41:19.530Z,153.63
2023-02-27T01:44:13.663Z,73.35
2023-02-27T01:47:03.136Z,56.63
2023-02-27T01:49:54.114Z,52.58
2023-02-27T01:52:45.466Z,56.15
2023-02-27T01:55:39.763Z,52.33
2023-02-27T01:58:29.900Z,49.38
2023-02-27T02:01:21.867Z,51.63
2023-02-27T02:04:21.008Z,58.58
2023-02-27T02:07:16.773Z,58.83
2023-02-27T02:10:08.031Z,62.70
2023-02-27T02:12:57.678Z,79.78
2023-02-27T02:16:13.857Z,94.57
2023-02-27T02:19:54.494Z,90.35
2023-02-27T02:23:52.147Z,103.70
2023-02-27T02:27:04.937Z,63.20
2023-02-27T02:30:54.027Z,39.33
2023-02-27T02:34:19.042Z,38.50
2023-02-27T02:37:59.293Z,30.17
2023-02-27T02:40:56.021Z,35.03
2023-02-27T02:44:00.887Z,36.00
2023-02-27T02:46:57.914Z,47.03
2023-02-27T02:49:58.261Z,36.65
2023-02-27T02:53:02.669Z,26.05
2023-02-27T02:56:01.555Z,29.55
2023-02-27T02:59:00.825Z,23.48
2023-02-27T03:01:55.218Z,26.35
2023-02-27T03:04:50.602Z,20.98
2023-02-27T03:07:45.584Z,23.30
2023-02-27T03:10:39.117Z,22.90
2023-02-27T03:13:35.944Z,32.17
2023-02-27T03:16:31.207Z,25.05
2023-02-27T03:19:27.013Z,23.90
2023-02-27T03:22:23.285Z,28.92
2023-02-27T03:25:15.413Z,28.60
2023-02-27T03:28:15.501Z,30.58
2023-02-27T03:31:15.256Z,30.85
2023-02-27T03:34:14.541Z,27.33
2023-02-27T03:37:14.524Z,30.92
2023-02-27T03:40:18.631Z,24.70
2023-02-27T03:43:18.558Z,31.98
2023-02-27T03:46:19.589Z,29.23
2023-02-27T03:49:09.490Z,38.05
2023-02-27T03:51:59.283Z,33.45
2023-02-27T03:54:56.036Z,47.53
2023-02-27T03:57:47.869Z,107.32
2023-02-27T04:00:37.513Z,117.90
2023-02-27T04:03:29.049Z,106.47
2023-02-27T04:06:36.140Z,74.40
2023-02-27T04:09:44.467Z,53.28
2023-02-27T04:13:38.725Z,43.97
2023-02-27T04:17:05.373Z,39.47
2023-02-27T04:20:24.029Z,28.30
2023-02-27T04:23:20.780Z,41.92
2023-02-27T04:26:22.777Z,24.83
2023-02-27T04:29:18.698Z,24.60
2023-02-27T04:32:17.834Z,24.70
2023-02-27T04:35:16.942Z,40.45
2023-02-27T04:38:15.465Z,25.92
2023-02-27T04:41:10.104Z,32.20
2023-02-27T04:44:00.432Z,24.80
2023-02-27T04:46:51.806Z,21.95
2023-02-27T04:49:47.050Z,21.83
2023-02-27T04:52:42.779Z,23.73
2023-02-27T04:55:36.512Z,36.88
2023-02-27T04:58:30.874Z,23.33
2023-02-27T05:01:26.792Z,21.98
2023-02-27T05:04:21.130Z,19.83
2023-02-27T05:07:15.968Z,21.77
2023-02-27T05:10:13.799Z,21.40
2023-02-27T05:13:11.513Z,23.17
2023-02-27T05:16:09.591Z,21.45
2023-02-27T05:18:58.818Z,29.00
2023-02-27T05:21:57.133Z,20.55
2023-02-27T05:24:55.108Z,19.40
2023-02-27T05:27:51.285Z,18.52
2023-02-27T05:30:46.956Z,22.35
2023-02-27T05:33:42.013Z,19.75
2023-02-27T05:36:36.132Z,20.52
2023-02-27T05:39:30.052Z,23.73
2023-02-27T05:42:27.068Z,25.15
2023-02-27T05:45:23.708Z,19.55
2023-02-27T05:48:19.858Z,19.50
2023-02-27T05:51:12.430Z,19.40
2023-02-27T05:54:08.345Z,18.30
2023-02-27T05:57:00.968Z,19.38
2023-02-27T06:00:00.766Z,31.80
2023-02-27T06:02:51.459Z,27.23
2023-02-27T06:05:43.486Z,20.38
2023-02-27T06:08:32.764Z,20.70
2023-02-27T06:11:21.979Z,16.38
2023-02-27T06:14:11.134Z,17.80
2023-02-27T06:17:00.481Z,18.15
2023-02-27T06:19:51.176Z,19.40
2023-02-27T06:22:50.280Z,16.70
2023-02-27T06:25:40.194Z,22.58
2023-02-27T06:28:29.605Z,15.43
2023-02-27T06:31:21.830Z,16.60
2023-02-27T06:34:11.137Z,16.23
2023-02-27T06:37:04.161Z,15.50
2023-02-27T06:39:53.644Z,19.63
2023-02-27T06:42:44.312Z,15.75
2023-02-27T06:45:33.540Z,16.75
2023-02-27T06:48:22.749Z,18.40
2023-02-27T06:51:12.250Z,18.85
2023-02-27T06:54:10.847Z,27.88
2023-02-27T06:57:07.308Z,18.80
2023-02-27T06:59:59.724Z,18.80
2023-02-27T07:02:49.034Z,19.75
2023-02-27T07:05:38.322Z,16.20
2023-02-27T07:08:27.668Z,37.17
2023-02-27T07:11:21.062Z,24.35
2023-02-27T07:14:10.499Z,18.65
2023-02-27T07:17:03.430Z,17.23
2023-02-27T07:19:52.748Z,19.27
2023-02-27T07:22:42.829Z,15.52
2023-02-27T07:25:32.136Z,15.45
2023-02-27T07:28:25.335Z,27.08
2023-02-27T07:34:04.834Z,20.02
2023-02-27T07:36:54.020Z,19.08
2023-02-27T07:39:43.466Z,51.70
2023-02-27T07:42:32.890Z,18.23
2023-02-27T07:45:27.942Z,17.10
2023-02-27T07:48:17.279Z,17.98
2023-02-27T07:51:07.451Z,40.20
2023-02-27T07:53:58.982Z,18.27
2023-02-27T07:56:48.431Z,17.63
2023-02-27T07:59:41.325Z,24.38
2023-02-27T08:02:38.513Z,29.55
2023-02-27T08:05:29.809Z,17.00
2023-02-27T08:08:19.036Z,22.40
2023-02-27T08:11:11.047Z,18.50
2023-02-27T08:14:01.784Z,16.80
2023-02-27T08:16:51.573Z,18.48
2023-02-27T08:19:42.329Z,16.92
2023-02-27T08:22:32.711Z,21.05
2023-02-27T08:25:25.291Z,18.42
2023-02-27T08:28:14.680Z,17.80
2023-02-27T08:31:03.931Z,29.92
2023-02-27T08:34:01.011Z,17.83
2023-02-27T08:36:55.923Z,37.00
2023-02-27T08:39:45.184Z,18.65
2023-02-27T08:42:34.757Z,20.27
2023-02-27T08:45:24.171Z,22.42
2023-02-27T08:48:15.931Z,24.02
2023-02-27T08:51:05.338Z,20.80
2023-02-27T08:53:58.971Z,17.48
2023-02-27T08:56:49.058Z,17.35
2023-02-27T08:59:38.236Z,41.42
2023-02-27T09:02:31.522Z,18.13
2023-02-27T09:05:23.010Z,17.70
2023-02-27T09:08:12.226Z,16.83
2023-02-27T09:11:03.133Z,17.50
2023-02-27T09:13:53.030Z,22.60
2023-02-27T09:16:42.454Z,19.65
2023-02-27T09:19:32.055Z,37.03
2023-02-27T09:22:21.436Z,27.27
2023-02-27T09:25:11.237Z,25.30
2023-02-27T09:28:01.905Z,18.15
2023-02-27T09:30:51.255Z,31.33
2023-02-27T09:33:40.727Z,17.55
2023-02-27T09:36:30.475Z,20.13
2023-02-27T09:39:19.870Z,27.08
2023-02-27T09:42:18.071Z,16.50
2023-02-27T09:45:17.705Z,18.08
2023-02-27T09:48:17.076Z,21.23
2023-02-27T09:51:06.906Z,22.88
2023-02-27T09:54:00.882Z,24.08
2023-02-27T09:56:55.641Z,21.48
2023-02-27T09:59:50.638Z,21.27
2023-02-27T10:02:55.672Z,26.35
2023-02-27T10:05:52.655Z,24.45
2023-02-27T10:08:53.671Z,27.35
2023-02-27T10:11:58.481Z,98.25
2023-02-27T10:14:51.668Z,76.10
2023-02-27T10:20:38.497Z,25.88
2023-02-27T10:23:38.630Z,25.30
2023-02-27T10:26:33.121Z,33.83
2023-02-27T10:29:30.740Z,35.08
2023-02-27T10:32:24.099Z,24.65
2023-02-27T10:35:31.315Z,26.33
2023-02-27T10:38:33.242Z,35.72
2023-02-27T10:41:24.297Z,31.10
2023-02-27T10:44:18.766Z,18.38
2023-02-27T10:47:08.053Z,49.55
2023-02-27T10:50:00.360Z,42.80
2023-02-27T10:52:54.583Z,54.80
2023-02-27T10:55:58.666Z,57.10
2023-02-27T10:58:48.253Z,61.72
2023-02-27T11:01:46.057Z,46.60
2023-02-27T11:04:38.650Z,84.57
2023-02-27T11:07:32.472Z,88.65
2023-02-27T11:10:24.460Z,29.23
2023-02-27T11:13:22.805Z,52.13
2023-02-27T11:16:15.871Z,62.80
2023-02-27T11:22:18.722Z,50.67
2023-02-27T11:25:24.504Z,52.70
2023-02-27T11:28:23.816Z,51.42
2023-02-27T11:31:20.397Z,55.42
2023-02-27T11:34:20.608Z,50.58
2023-02-27T11:37:23.480Z,77.30
2023-02-27T11:40:19.597Z,39.30
2023-02-27T11:43:21.224Z,79.03
2023-02-27T11:46:46.627Z,34.92
2023-02-27T11:49:34.921Z,33.33
2023-02-27T11:52:33.274Z,35.72
2023-02-27T11:55:28.036Z,42.97
2023-02-27T11:58:23.233Z,49.50
2023-02-27T12:01:24.993Z,73.25
2023-02-27T12:04:22.094Z,74.80
2023-02-27T12:07:22.212Z,49.28
2023-02-27T12:10:19.755Z,45.80
2023-02-27T12:13:18.028Z,34.60
2023-02-27T12:16:18.693Z,42.95
2023-02-27T12:19:17.508Z,30.02
2023-02-27T12:22:14.851Z,23.63
2023-02-27T12:25:12.092Z,18.40
2023-02-27T12:28:10.000Z,18.15
2023-02-27T12:31:32.428Z,21.55
2023-02-27T12:34:29.460Z,24.27
2023-02-27T12:37:24.912Z,22.15
2023-02-27T12:40:18.622Z,28.25
2023-02-27T12:43:28.283Z,26.13
2023-02-27T12:46:36.971Z,21.30
2023-02-27T12:49:40.567Z,26.13
2023-02-27T12:52:46.313Z,28.08
2023-02-27T12:55:42.877Z,38.63
2023-02-27T12:58:43.732Z,35.30
2023-02-27T13:01:47.709Z,35.33
2023-02-27T13:04:47.263Z,62.40
2023-02-27T13:07:46.386Z,30.75
2023-02-27T13:10:43.163Z,31.27
2023-02-27T13:13:39.946Z,32.03
2023-02-27T13:16:36.728Z,23.42
2023-02-27T13:19:33.480Z,23.25
2023-02-27T13:22:37.558Z,23.73
2023-02-27T13:25:28.001Z,24.80
2023-02-27T13:28:21.247Z,31.50
2023-02-27T13:31:24.502Z,27.20
2023-02-27T13:34:25.424Z,29.70
2023-02-27T13:37:16.232Z,36.10
2023-02-27T13:40:30.973Z,26.98
2023-02-27T13:43:46.492Z,45.72
2023-02-27T13:46:40.570Z,25.73
2023-02-27T13:49:31.351Z,29.58
2023-02-27T13:52:30.477Z,32.22
2023-02-27T13:55:31.202Z,31.73
2023-02-27T13:58:25.546Z,26.67
2023-02-27T14:01:23.805Z,20.80
2023-02-27T14:04:19.940Z,17.05
2023-02-27T14:07:15.278Z,17.92
2023-02-27T14:10:11.659Z,28.85
2023-02-27T14:13:03.755Z,21.80
2023-02-27T14:16:00.441Z,21.85
2023-02-27T14:18:57.768Z,23.70
2023-02-27T14:22:01.259Z,24.13
2023-02-27T14:25:03.667Z,39.40
2023-02-27T14:27:59.041Z,27.20
2023-02-27T14:30:55.601Z,31.02
2023-02-27T14:33:50.862Z,25.90
2023-02-27T14:36:47.634Z,33.90
2023-02-27T14:39:39.407Z,29.00
2023-02-27T14:42:46.047Z,25.10
2023-02-27T14:45:36.945Z,25.00
2023-02-27T14:48:29.964Z,36.03
2023-02-27T14:51:19.701Z,29.40
2023-02-27T14:54:16.481Z,28.00
2023-02-27T14:57:08.487Z,19.55
2023-02-27T14:59:57.819Z,15.57
2023-02-27T15:02:48.472Z,12.15
2023-02-27T15:05:39.522Z,12.73
2023-02-27T15:08:33.310Z,10.30
2023-02-27T15:11:24.604Z,10.63
2023-02-27T15:14:22.630Z,13.65
2023-02-27T15:17:24.243Z,15.13
2023-02-27T15:20:30.011Z,13.25
2023-02-27T15:23:26.980Z,10.10
2023-02-27T15:26:16.275Z,48.08
2023-02-27T15:29:08.183Z,10.48
2023-02-27T15:31:57.435Z,15.52
2023-02-27T15:34:48.141Z,23.02
2023-02-27T15:37:40.170Z,13.07
2023-02-27T15:40:31.969Z,19.85
2023-02-27T15:43:22.973Z,15.82
2023-02-27T15:46:12.304Z,12.95
2023-02-27T15:49:01.678Z,43.28
2023-02-27T15:52:01.484Z,45.30
2023-02-27T15:54:54.824Z,18.58
2023-02-27T15:58:00.762Z,46.65
2023-02-27T16:01:00.871Z,14.27
2023-02-27T16:03:53.590Z,17.02
2023-02-27T16:06:48.680Z,17.85
2023-02-27T16:09:39.260Z,14.30
2023-02-27T16:12:36.951Z,14.82
2023-02-27T16:15:32.558Z,20.77
2023-02-27T16:18:31.901Z,14.55
2023-02-27T16:21:22.971Z,15.05
2023-02-27T16:24:22.926Z,20.55
2023-02-27T16:27:20.907Z,18.00
2023-02-27T16:30:17.233Z,14.80
2023-02-27T16:33:06.846Z,17.98
2023-02-27T16:36:16.947Z,18.60
2023-02-27T16:39:08.468Z,19.15
2023-02-27T16:41:59.951Z,19.80
2023-02-27T16:44:49.190Z,24.55
2023-02-27T16:47:39.836Z,20.85
2023-02-27T16:50:32.927Z,17.58
2023-02-27T16:53:22.362Z,23.67
2023-02-27T16:56:13.094Z,24.38
2023-02-27T16:59:03.651Z,19.48
2023-02-27T17:01:53.378Z,19.80
2023-02-27T17:04:47.718Z,24.58
2023-02-27T17:07:37.672Z,35.65
2023-02-27T17:10:27.396Z,19.10
2023-02-27T17:13:17.420Z,24.15
2023-02-27T17:16:08.445Z,29.40
2023-02-27T17:18:57.646Z,21.52
2023-02-27T17:21:48.292Z,23.90
2023-02-27T17:24:38.784Z,33.63
2023-02-27T17:27:28.162Z,40.55
2023-02-27T17:30:18.755Z,33.53
2023-02-27T17:33:08.131Z,35.58
2023-02-27T17:36:03.723Z,25.33
2023-02-27T17:38:57.896Z,31.58
2023-02-27T17:41:48.265Z,45.97
2023-02-27T17:44:37.896Z,35.35
2023-02-27T17:47:27.178Z,27.13
2023-02-27T17:50:17.036Z,30.70
2023-02-27T17:53:06.277Z,46.67
2023-02-27T17:55:56.945Z,30.73
2023-02-27T17:58:46.227Z,26.42
2023-02-27T18:01:36.817Z,29.35
2023-02-27T18:04:26.382Z,25.95
2023-02-27T18:07:15.646Z,27.60
2023-02-27T18:10:06.602Z,29.15
2023-02-27T18:12:57.243Z,27.33
2023-02-27T18:15:47.507Z,29.65
2023-02-27T18:18:37.679Z,24.33
2023-02-27T18:21:27.293Z,33.50
2023-02-27T18:24:17.845Z,42.72
2023-02-27T18:27:07.069Z,44.90
2023-02-27T18:29:59.438Z,25.92
2023-02-27T18:32:48.797Z,31.75
2023-02-27T18:35:38.181Z,26.88
2023-02-27T18:38:28.086Z,35.00
2023-02-27T18:41:17.375Z,41.38
2023-02-27T18:44:08.067Z,28.17
2023-02-27T18:46:58.744Z,42.63
2023-02-27T18:49:48.193Z,23.30
2023-02-27T18:52:38.613Z,29.10
2023-02-27T18:55:28.624Z,26.90
2023-02-27T18:58:17.837Z,30.33
2023-02-27T19:01:08.104Z,29.38
2023-02-27T19:04:03.918Z,26.67
2023-02-27T19:06:53.515Z,24.50
2023-02-27T19:09:43.189Z,22.85
2023-02-27T19:12:32.686Z,26.15
2023-02-27T19:15:22.014Z,25.30
2023-02-27T19:18:11.300Z,24.13
2023-02-27T19:21:06.749Z,46.33
2023-02-27T19:23:56.530Z,27.45
2023-02-27T19:26:47.291Z,25.20
2023-02-27T19:29:36.644Z,32.95
2023-02-27T19:32:26.019Z,26.35
2023-02-27T19:35:17.899Z,28.50
2023-02-27T19:38:08.668Z,31.95
2023-02-27T19:41:03.315Z,29.55
2023-02-27T19:43:53.665Z,24.98
2023-02-27T19:46:43.618Z,32.92
2023-02-27T19:49:33.544Z,29.73
2023-02-27T19:52:22.995Z,28.27
2023-02-27T19:55:13.991Z,33.53
2023-02-27T19:58:03.304Z,31.10
2023-02-27T20:00:52.711Z,38.75
2023-02-27T20:03:43.812Z,32.30
2023-02-27T20:06:42.367Z,32.22
2023-02-27T20:09:34.523Z,49.38
2023-02-27T20:12:26.880Z,28.38
2023-02-27T20:15:16.271Z,32.03
2023-02-27T20:18:05.654Z,62.15
2023-02-27T20:21:03.729Z,33.55
2023-02-27T20:23:53.534Z,42.03
2023-02-27T20:26:46.191Z,39.22
2023-02-27T20:29:37.088Z,39.15
2023-02-27T20:32:26.840Z,50.63
2023-02-27T20:35:16.999Z,50.03
2023-02-27T20:38:06.854Z,74.53
2023-02-27T20:40:59.222Z,43.28
2023-02-27T20:43:48.442Z,48.83
2023-02-27T20:46:41.586Z,40.28
2023-02-27T20:52:19.760Z,47.92
2023-02-27T20:55:10.330Z,37.58
2023-02-27T20:57:59.756Z,39.90
2023-02-27T21:00:48.964Z,33.65
2023-02-27T21:03:42.478Z,31.33
2023-02-27T21:06:32.312Z,40.90
2023-02-27T21:09:22.390Z,39.53
2023-02-27T21:12:12.767Z,28.23
2023-02-27T21:15:01.983Z,55.75
2023-02-27T21:17:51.330Z,28.77
2023-02-27T21:20:43.746Z,28.85
2023-02-27T21:23:33.933Z,25.35
2023-02-27T21:26:26.326Z,28.98
2023-02-27T21:29:19.019Z,28.30
2023-02-27T21:32:08.362Z,25.48
2023-02-27T21:34:57.722Z,26.55
2023-02-27T21:37:49.243Z,28.65
2023-02-27T21:40:38.537Z,28.13
2023-02-27T21:43:27.838Z,27.95
2023-02-27T21:46:17.327Z,35.42
2023-02-27T21:49:06.996Z,29.63
2023-02-27T21:51:57.160Z,35.53
2023-02-27T21:54:47.870Z,28.38
2023-02-27T21:57:38.256Z,45.05
2023-02-27T22:00:29.421Z,38.55
2023-02-27T22:03:19.074Z,39.78
2023-02-27T22:06:09.342Z,47.38
2023-02-27T22:09:01.448Z,47.05
2023-02-27T22:11:52.187Z,65.80
2023-02-27T22:14:43.413Z,33.33
2023-02-27T22:17:32.774Z,28.65
2023-02-27T22:20:22.341Z,27.88
2023-02-27T22:23:11.696Z,29.13
2023-02-27T22:26:02.483Z,42.42
2023-02-27T22:28:55.801Z,27.25
2023-02-27T22:31:45.994Z,21.98
2023-02-27T22:34:35.613Z,25.58
2023-02-27T22:37:25.403Z,26.88
2023-02-27T22:40:16.490Z,29.83
2023-02-27T22:43:06.214Z,27.33
2023-02-27T22:45:58.308Z,26.27
2023-02-27T22:48:47.501Z,29.27
2023-02-27T22:51:37.324Z,27.40
2023-02-27T22:54:26.490Z,23.77
2023-02-27T22:57:15.876Z,28.15
2023-02-27T23:00:07.130Z,21.48
2023-02-27T23:02:57.849Z,29.40
2023-02-27T23:05:48.034Z,30.30
2023-02-27T23:08:38.172Z,25.90
2023-02-27T23:11:28.152Z,29.15
2023-02-27T23:14:18.044Z,29.33
2023-02-27T23:17:07.359Z,26.48
2023-02-27T23:19:58.075Z,34.45
2023-02-27T23:22:47.613Z,43.35
2023-02-27T23:25:38.931Z,41.28
2023-02-27T23:28:28.217Z,26.88
2023-02-27T23:31:17.978Z,23.73
2023-02-27T23:34:08.113Z,20.88
2023-02-27T23:36:58.718Z,27.23
2023-02-27T23:39:47.998Z,24.75
2023-02-27T23:42:37.205Z,26.45
2023-02-27T23:45:26.596Z,25.75
2023-02-27T23:48:15.915Z,24.10
2023-02-27T23:51:07.972Z,25.50
2023-02-27T23:53:58.706Z,25.73
2023-02-27T23:56:49.436Z,24.13
2023-02-27T23:59:38.777Z,23.63
